createdAt,value
2024-04-30T00:30:13.109Z,1.00
2024-04-30T00:32:43.093Z,1.00
2024-04-30T00:35:10.488Z,1.00
2024-04-30T00:37:40.814Z,1.00
2024-04-30T00:40:09.031Z,1.00
2024-04-30T00:42:41.839Z,1.00
2024-04-30T00:45:09.437Z,1.00
2024-04-30T00:47:40.569Z,1.00
2024-04-30T00:50:09.770Z,1.00
2024-04-30T00:52:40.223Z,1.00
2024-04-30T00:55:07.842Z,1.00
2024-04-30T00:57:40.989Z,1.00
2024-04-30T01:00:09.411Z,16.20
2024-04-30T01:02:39.502Z,1.00
2024-04-30T01:05:07.292Z,10.90
2024-04-30T01:07:37.343Z,51.40
2024-04-30T01:10:05.774Z,72.60
2024-04-30T01:12:37.703Z,99.90
2024-04-30T01:15:08.203Z,99.90
2024-04-30T01:17:38.233Z,99.90
2024-04-30T01:20:07.745Z,99.90
2024-04-30T01:22:37.769Z,1.00
2024-04-30T01:25:08.546Z,1.00
2024-04-30T01:27:38.583Z,1.00
2024-04-30T01:30:07.906Z,1.00
2024-04-30T01:32:38.282Z,99.90
2024-04-30T01:35:07.107Z,99.90
2024-04-30T01:37:37.166Z,1.00
2024-04-30T01:40:09.355Z,1.00
2024-04-30T01:42:39.319Z,1.00
2024-04-30T01:45:07.224Z,1.00
2024-04-30T01:47:37.334Z,1.00
2024-04-30T01:50:07.149Z,1.00
2024-04-30T01:52:37.319Z,1.00
2024-04-30T01:55:08.389Z,65.70
2024-04-30T01:57:38.950Z,99.90
2024-04-30T02:00:07.975Z,17.20
2024-04-30T02:02:38.103Z,1.00
2024-04-30T02:05:10.921Z,1.00
2024-04-30T02:07:48.124Z,59.50
2024-04-30T02:10:18.421Z,18.00
2024-04-30T02:12:48.416Z,99.90
2024-04-30T02:15:15.850Z,99.90
2024-04-30T02:17:45.912Z,99.90
2024-04-30T02:20:13.618Z,1.00
2024-04-30T02:22:43.688Z,1.00
2024-04-30T02:25:11.043Z,1.00
2024-04-30T02:27:43.876Z,1.00
2024-04-30T02:30:28.090Z,1.00
2024-04-30T02:33:13.837Z,1.00
2024-04-30T02:35:44.032Z,1.00
2024-04-30T02:38:14.038Z,1.00
2024-04-30T02:40:44.186Z,1.00
2024-04-30T02:43:16.905Z,1.00
2024-04-30T02:45:44.601Z,1.00
2024-04-30T02:48:14.657Z,89.10
2024-04-30T02:50:42.031Z,99.90
2024-04-30T02:53:12.061Z,99.90
2024-04-30T02:55:39.443Z,99.90
2024-04-30T03:00:40.914Z,1.00
2024-04-30T03:03:11.563Z,99.90
2024-04-30T03:05:38.983Z,99.90
2024-04-30T03:08:09.558Z,99.90
2024-04-30T03:10:37.025Z,99.90
2024-04-30T03:13:07.526Z,99.90
2024-04-30T03:15:34.899Z,1.00
2024-04-30T03:18:08.374Z,1.00
2024-04-30T03:20:35.915Z,4.30
2024-04-30T03:23:06.021Z,2.00
2024-04-30T03:25:33.518Z,99.90
2024-04-30T03:28:03.680Z,1.00
2024-04-30T03:30:31.235Z,1.00
2024-04-30T03:33:01.723Z,1.00
2024-04-30T03:35:31.859Z,1.00
2024-04-30T03:38:01.854Z,1.00
2024-04-30T03:40:31.893Z,1.00
2024-04-30T03:43:02.055Z,1.00
2024-04-30T03:45:29.466Z,1.00
2024-04-30T03:47:59.637Z,1.00
2024-04-30T03:50:29.710Z,1.00
2024-04-30T03:52:59.718Z,1.00
2024-04-30T03:55:29.965Z,1.00
2024-04-30T03:57:57.356Z,17.10
2024-04-30T04:00:27.482Z,99.90
2024-04-30T04:02:54.917Z,99.90
2024-04-30T04:05:24.919Z,99.90
2024-04-30T04:07:52.386Z,1.00
2024-04-30T04:10:25.031Z,1.00
2024-04-30T04:13:11.149Z,18.80
2024-04-30T04:15:41.147Z,99.90
2024-04-30T04:18:11.335Z,99.90
2024-04-30T04:22:13.150Z,9.50
2024-04-30T04:24:55.633Z,99.90
2024-04-30T04:27:28.325Z,99.90
2024-04-30T04:29:55.720Z,1.00
2024-04-30T04:32:26.011Z,1.00
2024-04-30T04:34:53.556Z,1.00
2024-04-30T04:37:25.754Z,1.00
2024-04-30T04:39:54.786Z,1.00
2024-04-30T04:42:27.451Z,1.00
2024-04-30T04:44:55.089Z,99.90
2024-04-30T04:47:25.279Z,99.90
2024-04-30T04:49:52.744Z,99.90
2024-04-30T04:52:22.836Z,1.00
2024-04-30T04:54:50.789Z,1.00
2024-04-30T04:57:20.778Z,99.90
2024-04-30T04:59:50.900Z,99.90
2024-04-30T05:02:21.048Z,1.00
2024-04-30T05:04:48.491Z,1.00
2024-04-30T05:07:18.653Z,99.90
2024-04-30T05:09:46.235Z,99.90
2024-04-30T05:12:16.474Z,99.90
2024-04-30T05:14:43.918Z,99.90
2024-04-30T05:17:16.784Z,1.00
2024-04-30T05:19:44.214Z,1.00
2024-04-30T05:22:14.257Z,1.00
2024-04-30T05:24:41.868Z,1.00
2024-04-30T05:27:11.919Z,99.90
2024-04-30T05:29:39.320Z,99.90
2024-04-30T05:32:09.445Z,99.90
2024-04-30T05:34:39.527Z,86.30
2024-04-30T05:37:10.758Z,53.50
2024-04-30T05:39:38.234Z,1.00
2024-04-30T05:42:09.175Z,1.00
2024-04-30T05:44:36.853Z,1.00
2024-04-30T05:47:07.455Z,1.00
2024-04-30T05:49:35.018Z,1.00
2024-04-30T05:52:08.764Z,1.00
2024-04-30T05:54:36.215Z,1.00
2024-04-30T05:57:06.545Z,1.00
2024-04-30T05:59:34.018Z,1.00
2024-04-30T06:02:04.262Z,1.00
2024-04-30T06:04:31.731Z,99.90
2024-04-30T06:07:01.999Z,99.90
2024-04-30T06:09:32.088Z,99.90
2024-04-30T06:12:02.153Z,99.90
2024-04-30T06:14:29.621Z,99.90
2024-04-30T06:16:59.619Z,99.90
2024-04-30T06:19:27.062Z,99.90
2024-04-30T06:21:57.113Z,99.90
2024-04-30T06:24:25.615Z,99.90
2024-04-30T06:26:58.361Z,99.90
2024-04-30T06:29:25.716Z,99.90
2024-04-30T06:31:55.767Z,99.90
2024-04-30T06:34:23.180Z,99.90
2024-04-30T06:36:53.249Z,99.90
2024-04-30T06:39:21.767Z,1.00
2024-04-30T06:41:51.753Z,1.00
2024-04-30T06:44:24.483Z,1.00
2024-04-30T06:46:51.823Z,99.90
2024-04-30T06:49:24.992Z,1.00
2024-04-30T06:51:54.031Z,1.00
2024-04-30T06:54:24.052Z,1.00
2024-04-30T06:56:51.427Z,47.90
2024-04-30T06:59:24.135Z,45.80
2024-04-30T07:01:51.545Z,44.20
2024-04-30T07:04:21.697Z,43.10
2024-04-30T07:06:49.190Z,41.60
2024-04-30T07:09:19.310Z,41.00
2024-04-30T07:11:46.725Z,39.50
2024-04-30T07:14:16.797Z,37.70
2024-04-30T07:16:52.341Z,40.40
2024-04-30T07:19:29.832Z,37.80
2024-04-30T07:21:57.345Z,39.60
2024-04-30T07:24:27.342Z,36.30
2024-04-30T07:26:55.183Z,33.70
2024-04-30T07:29:25.193Z,32.60
2024-04-30T07:31:55.293Z,32.10
2024-04-30T07:34:25.420Z,31.80
2024-04-30T07:36:52.826Z,32.30
2024-04-30T07:39:22.877Z,31.10
2024-04-30T07:41:50.325Z,29.50
2024-04-30T07:44:20.405Z,29.10
2024-04-30T07:46:47.787Z,28.30
2024-04-30T07:49:20.513Z,27.40
2024-04-30T07:51:47.910Z,27.30
2024-04-30T07:54:17.929Z,30.90
2024-04-30T07:56:45.333Z,28.10
2024-04-30T07:59:15.443Z,29.70
2024-04-30T08:01:43.408Z,29.90
2024-04-30T08:04:13.448Z,28.50
2024-04-30T08:06:43.532Z,28.50
2024-04-30T08:09:14.325Z,26.60
2024-04-30T08:11:41.840Z,28.10
2024-04-30T08:14:11.920Z,27.40
2024-04-30T08:16:39.746Z,26.90
2024-04-30T08:19:10.556Z,26.70
2024-04-30T08:21:38.041Z,23.80
2024-04-30T08:24:10.933Z,22.60
2024-04-30T08:26:38.998Z,20.40
2024-04-30T08:29:09.022Z,17.60
2024-04-30T08:31:36.904Z,16.70
2024-04-30T08:34:07.031Z,16.80
2024-04-30T08:36:36.236Z,12.20
2024-04-30T08:39:06.452Z,12.50
2024-04-30T08:41:38.834Z,10.50
2024-04-30T08:44:11.827Z,8.80
2024-04-30T08:46:43.503Z,8.50
2024-04-30T08:49:23.719Z,8.70
2024-04-30T08:51:57.729Z,7.10
2024-04-30T08:54:29.808Z,7.60
2024-04-30T08:57:00.074Z,7.70
2024-04-30T08:59:30.252Z,7.70
2024-04-30T09:01:59.626Z,7.20
2024-04-30T09:04:32.480Z,6.50
2024-04-30T09:06:59.990Z,6.30
2024-04-30T09:09:30.078Z,7.60
2024-04-30T09:12:00.561Z,7.30
2024-04-30T09:14:30.728Z,6.70
2024-04-30T09:17:00.106Z,5.10
2024-04-30T09:19:31.528Z,5.50
2024-04-30T09:22:06.554Z,5.40
2024-04-30T09:24:37.221Z,5.70
2024-04-30T09:27:07.494Z,5.50
2024-04-30T09:29:39.929Z,4.50
2024-04-30T09:32:08.931Z,5.40
2024-04-30T09:34:42.961Z,5.00
2024-04-30T09:37:20.082Z,5.60
2024-04-30T09:39:53.747Z,5.20
2024-04-30T09:42:26.828Z,4.50
2024-04-30T09:44:58.193Z,4.30
2024-04-30T09:47:26.600Z,3.10
2024-04-30T09:49:59.877Z,2.30
2024-04-30T09:52:29.940Z,3.10
2024-04-30T09:55:09.357Z,3.20
2024-04-30T09:57:40.845Z,2.40
2024-04-30T10:00:12.841Z,1.10
2024-04-30T10:02:45.802Z,1.20
2024-04-30T10:05:21.904Z,1.00
2024-04-30T10:07:50.176Z,1.00
2024-04-30T10:10:28.445Z,1.00
2024-04-30T10:13:08.164Z,1.10
2024-04-30T10:15:38.535Z,1.10
2024-04-30T10:18:07.258Z,1.00
2024-04-30T10:20:37.256Z,1.00
2024-04-30T10:23:06.703Z,1.00
2024-04-30T10:25:36.791Z,1.00
2024-04-30T10:28:14.228Z,1.00
2024-04-30T10:30:44.336Z,1.00
2024-04-30T10:33:14.381Z,1.00
2024-04-30T10:35:43.627Z,1.00
2024-04-30T10:38:13.910Z,1.00
2024-04-30T10:40:41.376Z,1.00
2024-04-30T10:43:23.643Z,1.00
2024-04-30T10:45:51.316Z,1.00
2024-04-30T10:48:21.761Z,1.00
2024-04-30T10:50:49.264Z,1.00
2024-04-30T10:53:22.966Z,1.00
2024-04-30T10:55:50.496Z,1.00
2024-04-30T10:58:23.263Z,1.00
2024-04-30T11:00:50.837Z,1.00
2024-04-30T11:03:25.069Z,1.00
2024-04-30T11:05:59.513Z,1.00
2024-04-30T11:08:29.634Z,1.00
2024-04-30T11:11:14.803Z,1.00
2024-04-30T11:13:48.665Z,1.00
2024-04-30T11:16:16.963Z,1.00
2024-04-30T11:18:47.184Z,1.00
2024-04-30T11:21:14.666Z,1.00
2024-04-30T11:23:44.760Z,1.00
2024-04-30T11:26:12.120Z,1.00
2024-04-30T11:28:43.938Z,1.00
2024-04-30T11:31:18.524Z,1.00
2024-04-30T11:33:49.842Z,1.00
2024-04-30T11:36:17.897Z,1.00
2024-04-30T11:38:47.867Z,1.00
2024-04-30T11:41:15.406Z,1.00
2024-04-30T11:43:45.446Z,1.00
2024-04-30T11:46:12.918Z,1.00
2024-04-30T11:48:45.858Z,1.00
2024-04-30T11:51:13.917Z,1.00
2024-04-30T11:53:44.051Z,1.00
2024-04-30T11:56:12.561Z,1.00
2024-04-30T11:58:42.554Z,1.00
2024-04-30T12:01:10.542Z,1.00
2024-04-30T12:03:40.704Z,1.00
2024-04-30T12:06:15.291Z,1.00
2024-04-30T12:08:46.220Z,1.00
2024-04-30T12:11:13.926Z,1.00
2024-04-30T12:13:44.033Z,1.00
2024-04-30T12:16:11.545Z,1.00
2024-04-30T12:18:41.567Z,1.00
2024-04-30T12:21:11.591Z,1.00
2024-04-30T12:23:41.601Z,1.00
2024-04-30T12:26:09.007Z,1.00
2024-04-30T12:28:39.455Z,1.00
2024-04-30T12:31:06.836Z,1.00
2024-04-30T12:33:37.464Z,1.00
2024-04-30T12:36:05.445Z,1.00
2024-04-30T12:38:38.774Z,1.00
2024-04-30T12:41:06.224Z,1.00
2024-04-30T12:43:39.136Z,1.00
2024-04-30T12:46:06.710Z,1.00
2024-04-30T12:48:38.688Z,1.00
2024-04-30T12:51:06.755Z,1.00
2024-04-30T12:53:40.757Z,1.00
2024-04-30T12:56:08.335Z,1.00
2024-04-30T12:58:39.715Z,1.00
2024-04-30T13:01:07.574Z,1.00
2024-04-30T13:03:37.680Z,1.00
2024-04-30T13:06:05.621Z,1.00
2024-04-30T13:08:39.745Z,1.00
2024-04-30T13:11:07.590Z,1.00
2024-04-30T13:13:38.888Z,1.00
2024-04-30T13:16:07.162Z,1.00
2024-04-30T13:18:38.167Z,1.00
2024-04-30T13:21:07.576Z,1.00
2024-04-30T13:23:41.188Z,1.00
2024-04-30T13:26:08.846Z,1.00
2024-04-30T13:28:39.639Z,1.00
2024-04-30T13:31:07.115Z,1.00
2024-04-30T13:33:38.114Z,1.00
2024-04-30T13:36:09.879Z,1.00
2024-04-30T13:38:42.586Z,1.00
2024-04-30T13:41:10.065Z,1.00
2024-04-30T13:43:40.903Z,1.00
2024-04-30T13:46:08.771Z,1.00
2024-04-30T13:48:39.355Z,1.00
2024-04-30T13:51:07.919Z,1.00
2024-04-30T13:53:42.370Z,1.00
2024-04-30T13:56:13.758Z,1.00
2024-04-30T13:58:43.984Z,1.00
2024-04-30T14:01:15.719Z,1.00
2024-04-30T14:03:46.370Z,1.00
2024-04-30T14:06:16.114Z,1.00
2024-04-30T14:08:49.149Z,1.00
2024-04-30T14:11:17.170Z,1.00
2024-04-30T14:13:47.297Z,1.00
2024-04-30T14:16:14.738Z,1.00
2024-04-30T14:18:44.774Z,1.00
2024-04-30T14:21:12.406Z,1.00
2024-04-30T14:23:42.355Z,1.00
2024-04-30T14:26:21.440Z,1.00
2024-04-30T14:28:48.864Z,1.00
2024-04-30T14:31:21.385Z,1.00
2024-04-30T14:33:51.594Z,1.00
2024-04-30T14:36:35.596Z,1.00
2024-04-30T14:39:10.451Z,1.00
2024-04-30T14:41:44.965Z,1.00
2024-04-30T14:44:12.682Z,1.00
2024-04-30T14:46:43.847Z,1.00
2024-04-30T14:49:11.797Z,1.00
2024-04-30T14:51:43.856Z,1.00
2024-04-30T14:54:12.196Z,1.00
2024-04-30T14:56:45.059Z,1.00
2024-04-30T14:59:12.644Z,1.00
2024-04-30T15:01:46.578Z,1.00
2024-04-30T15:04:14.419Z,1.00
2024-04-30T15:06:44.529Z,1.00
2024-04-30T15:09:12.062Z,1.00
2024-04-30T15:11:44.732Z,1.00
2024-04-30T15:14:14.839Z,1.00
2024-04-30T15:16:43.279Z,1.00
2024-04-30T15:19:13.542Z,1.00
2024-04-30T15:21:44.589Z,1.00
2024-04-30T15:24:14.940Z,1.00
2024-04-30T15:26:47.572Z,1.00
2024-04-30T15:29:15.000Z,1.00
2024-04-30T15:31:45.238Z,1.00
2024-04-30T15:34:12.901Z,1.00
2024-04-30T15:36:46.576Z,1.00
2024-04-30T15:39:17.490Z,1.00
2024-04-30T15:41:50.154Z,1.00
2024-04-30T15:44:17.612Z,1.00
2024-04-30T15:46:47.666Z,1.00
2024-04-30T15:49:15.368Z,1.00
2024-04-30T15:51:45.714Z,1.00
2024-04-30T15:54:13.706Z,1.00
2024-04-30T15:56:50.664Z,1.00
2024-04-30T15:59:24.742Z,1.00
2024-04-30T16:01:54.832Z,1.00
2024-04-30T16:04:22.396Z,1.00
2024-04-30T16:06:52.390Z,1.00
2024-04-30T16:09:19.766Z,1.00
2024-04-30T16:11:49.833Z,1.00
2024-04-30T16:14:18.177Z,1.00
2024-04-30T16:16:51.028Z,1.00
2024-04-30T16:19:22.692Z,1.00
2024-04-30T16:21:54.874Z,1.00
2024-04-30T16:24:23.259Z,1.00
2024-04-30T16:26:55.354Z,1.00
2024-04-30T16:29:22.732Z,1.00
2024-04-30T16:31:55.394Z,1.00
2024-04-30T16:34:22.786Z,1.00
2024-04-30T16:36:59.410Z,1.00
2024-04-30T16:39:27.070Z,1.00
2024-04-30T16:41:57.061Z,1.00
2024-04-30T16:44:29.634Z,1.00
2024-04-30T16:47:09.427Z,1.00
2024-04-30T16:49:36.850Z,1.00
2024-04-30T16:52:07.412Z,1.00
2024-04-30T16:54:34.808Z,1.00
2024-04-30T16:57:04.839Z,1.00
2024-04-30T16:59:32.661Z,1.00
2024-04-30T17:02:02.662Z,1.00
2024-04-30T17:04:32.838Z,1.00
2024-04-30T17:07:02.976Z,1.00
2024-04-30T17:09:30.388Z,1.00
2024-04-30T17:12:00.476Z,1.00
2024-04-30T17:14:28.851Z,1.00
2024-04-30T17:16:58.918Z,1.00
2024-04-30T17:19:26.435Z,1.00
2024-04-30T17:21:59.085Z,1.00
2024-04-30T17:24:26.530Z,1.00
2024-04-30T17:26:57.436Z,1.00
2024-04-30T17:29:25.433Z,1.00
2024-04-30T17:31:55.504Z,1.00
2024-04-30T17:34:22.860Z,1.00
2024-04-30T17:36:53.810Z,1.00
2024-04-30T17:39:23.876Z,1.00
2024-04-30T17:41:53.872Z,1.00
2024-04-30T17:44:21.287Z,1.00
2024-04-30T17:46:51.282Z,1.00
2024-04-30T17:49:21.373Z,1.00
2024-04-30T17:51:48.938Z,1.00
2024-04-30T17:54:20.019Z,1.00
2024-04-30T17:56:50.327Z,1.00
2024-04-30T17:59:20.346Z,1.00
2024-04-30T18:01:49.211Z,1.00
2024-04-30T18:04:22.090Z,1.00
2024-04-30T18:06:49.828Z,1.00
2024-04-30T18:09:19.952Z,1.00
2024-04-30T18:11:52.286Z,1.00
2024-04-30T18:14:22.416Z,1.00
2024-04-30T18:16:50.066Z,1.00
2024-04-30T18:19:20.158Z,1.00
2024-04-30T18:21:47.594Z,1.00
2024-04-30T18:24:17.657Z,1.00
2024-04-30T18:26:45.082Z,1.00
2024-04-30T18:29:19.886Z,1.00
2024-04-30T18:31:53.736Z,1.00
2024-04-30T18:34:24.383Z,1.00
2024-04-30T18:36:52.102Z,1.00
2024-04-30T18:39:22.320Z,1.00
2024-04-30T18:41:49.753Z,1.00
2024-04-30T18:44:22.687Z,1.00
2024-04-30T18:46:50.136Z,1.00
2024-04-30T18:49:20.479Z,1.00
2024-04-30T18:51:49.294Z,1.00
2024-04-30T18:54:20.351Z,1.00
2024-04-30T18:56:53.083Z,1.00
2024-04-30T18:59:24.142Z,1.00
2024-04-30T19:01:54.410Z,1.00
2024-04-30T19:04:21.940Z,1.00
2024-04-30T19:06:52.413Z,1.00
2024-04-30T19:09:19.850Z,1.50
2024-04-30T19:11:49.911Z,1.50
2024-04-30T19:14:17.315Z,2.00
2024-04-30T19:16:51.387Z,2.00
2024-04-30T19:19:21.286Z,2.50
2024-04-30T19:21:52.593Z,2.10
2024-04-30T19:24:20.655Z,2.50
2024-04-30T19:26:51.154Z,2.60
2024-04-30T19:29:18.620Z,2.90
2024-04-30T19:31:51.471Z,3.00
2024-04-30T19:34:21.665Z,3.30
2024-04-30T19:36:49.279Z,3.10
2024-04-30T19:39:19.447Z,3.50
2024-04-30T19:41:46.900Z,3.80
2024-04-30T19:44:16.936Z,3.90
2024-04-30T19:46:44.326Z,4.30
2024-04-30T19:49:17.140Z,4.40
2024-04-30T19:51:44.635Z,4.60
2024-04-30T19:54:14.689Z,4.80
2024-04-30T19:56:42.120Z,5.10
2024-04-30T19:59:12.223Z,5.30
2024-04-30T20:01:42.367Z,5.20
2024-04-30T20:04:10.156Z,5.30
2024-04-30T20:06:47.772Z,5.40
2024-04-30T20:09:17.072Z,5.60
2024-04-30T20:11:47.503Z,5.80
2024-04-30T20:14:14.912Z,5.30
2024-04-30T20:16:45.956Z,5.10
2024-04-30T20:19:13.858Z,4.90
2024-04-30T20:21:46.608Z,4.90
2024-04-30T20:24:14.393Z,5.30
2024-04-30T20:26:44.375Z,5.50
2024-04-30T20:29:12.081Z,5.90
2024-04-30T20:31:44.984Z,6.20
2024-04-30T20:34:14.891Z,6.40
2024-04-30T20:36:48.331Z,6.40
2024-04-30T20:39:15.751Z,6.50
2024-04-30T20:41:45.805Z,6.60
2024-04-30T20:44:13.181Z,6.60
2024-04-30T20:46:43.105Z,6.70
2024-04-30T20:49:10.570Z,7.60
2024-04-30T20:51:48.003Z,7.30
2024-04-30T20:54:15.519Z,7.50
2024-04-30T20:56:45.807Z,7.80
2024-04-30T20:59:13.564Z,8.20
2024-04-30T21:01:43.816Z,8.20
2024-04-30T21:04:11.558Z,8.20
2024-04-30T21:06:42.048Z,8.10
2024-04-30T21:09:13.405Z,8.60
2024-04-30T21:11:43.399Z,8.80
2024-04-30T21:14:10.784Z,8.90
2024-04-30T21:16:41.371Z,8.80
2024-04-30T21:19:08.928Z,9.00
2024-04-30T21:21:42.971Z,8.30
2024-04-30T21:24:13.818Z,8.80
2024-04-30T21:26:44.505Z,8.60
2024-04-30T21:29:11.870Z,9.10
2024-04-30T21:31:41.924Z,9.30
2024-04-30T21:34:09.705Z,9.50
2024-04-30T21:36:46.505Z,9.50
2024-04-30T21:39:16.871Z,9.80
2024-04-30T21:41:46.846Z,9.50
2024-04-30T21:44:14.217Z,9.50
2024-04-30T21:46:44.595Z,9.90
2024-04-30T21:49:13.161Z,9.90
2024-04-30T21:51:46.302Z,10.10
2024-04-30T21:54:17.069Z,10.30
2024-04-30T21:56:47.095Z,9.90
2024-04-30T21:59:14.487Z,10.10
2024-04-30T22:01:49.844Z,10.50
2024-04-30T22:04:17.505Z,10.80
2024-04-30T22:06:47.677Z,11.30
2024-04-30T22:09:17.754Z,11.60
2024-04-30T22:11:47.882Z,11.70
2024-04-30T22:14:15.235Z,12.60
2024-04-30T22:16:45.622Z,13.10
2024-04-30T22:19:13.110Z,13.20
2024-04-30T22:21:43.765Z,13.50
2024-04-30T22:24:11.117Z,13.50
2024-04-30T22:26:44.132Z,13.80
2024-04-30T22:29:11.484Z,13.80
2024-04-30T22:31:41.449Z,14.30
2024-04-30T22:34:09.203Z,14.00
2024-04-30T22:36:39.297Z,14.00
2024-04-30T22:39:06.734Z,14.40
2024-04-30T22:41:36.774Z,14.50
2024-04-30T22:44:06.761Z,14.50
2024-04-30T22:46:36.773Z,14.60
2024-04-30T22:49:04.213Z,15.20
2024-04-30T22:51:34.339Z,15.10
2024-04-30T22:54:01.855Z,15.50
2024-04-30T22:56:34.241Z,15.80
2024-04-30T22:59:02.239Z,15.90
2024-04-30T23:01:35.024Z,16.30
2024-04-30T23:04:02.677Z,16.50
2024-04-30T23:06:33.084Z,16.70
2024-04-30T23:09:00.586Z,16.50
2024-04-30T23:11:30.625Z,16.80
2024-04-30T23:13:58.001Z,17.10
2024-04-30T23:16:29.384Z,16.90
2024-04-30T23:19:02.008Z,17.20
2024-04-30T23:21:29.686Z,17.50
2024-04-30T23:23:59.736Z,17.50
2024-04-30T23:26:29.832Z,17.80
2024-04-30T23:28:57.187Z,18.10
2024-04-30T23:31:27.459Z,18.80
2024-04-30T23:33:54.869Z,19.20
2024-04-30T23:36:27.596Z,19.80
2024-04-30T23:38:55.126Z,20.30
2024-04-30T23:41:25.121Z,21.10
2024-04-30T23:43:52.471Z,21.20
2024-04-30T23:46:22.463Z,22.10
2024-04-30T23:48:49.950Z,22.30
2024-04-30T23:51:19.920Z,22.80
2024-04-30T23:53:52.629Z,23.00
2024-04-30T23:56:19.979Z,23.10
2024-04-30T23:58:50.900Z,23.90
